createdAt,value
2023-03-17T00:00:48.729Z,7.45
2023-03-17T00:01:37.847Z,7.43
2023-03-17T00:04:04.772Z,7.36
2023-03-17T00:05:48.815Z,7.36
2023-03-17T00:06:34.024Z,6.03
2023-03-17T00:09:00.508Z,7.35
2023-03-17T00:10:48.700Z,7.35
2023-03-17T00:11:27.842Z,7.29
2023-03-17T00:13:54.422Z,7.34
2023-03-17T00:15:48.741Z,7.34
2023-03-17T00:16:27.047Z,7.24
2023-03-17T00:18:54.073Z,7.18
2023-03-17T00:20:48.854Z,69.50
2023-03-17T00:21:32.185Z,7.15
2023-03-17T00:24:01.309Z,6.90
2023-03-17T00:25:48.868Z,6.90
2023-03-17T00:26:28.569Z,7.26
2023-03-17T00:28:55.335Z,6.91
2023-03-17T00:30:48.707Z,6.91
2023-03-17T00:31:26.131Z,7.12
2023-03-17T00:33:54.129Z,6.70
2023-03-17T00:35:48.742Z,6.70
2023-03-17T00:36:24.088Z,5.87
2023-03-17T00:38:52.525Z,7.09
2023-03-17T00:40:48.749Z,7.09
2023-03-17T00:41:19.416Z,6.54
2023-03-17T00:43:45.876Z,6.69
2023-03-17T00:45:48.765Z,6.69
2023-03-17T00:46:21.785Z,6.62
2023-03-17T00:48:48.642Z,6.85
2023-03-17T00:50:48.775Z,6.85
2023-03-17T00:51:17.947Z,6.87
2023-03-17T00:53:44.458Z,6.80
2023-03-17T00:55:48.720Z,6.80
2023-03-17T00:56:21.128Z,6.21
2023-03-17T00:58:48.677Z,6.91
2023-03-17T01:00:48.788Z,6.91
2023-03-17T01:01:16.069Z,6.86
2023-03-17T01:03:42.726Z,6.86
2023-03-17T01:05:48.695Z,6.86
2023-03-17T01:06:12.002Z,6.34
2023-03-17T01:08:40.593Z,6.69
2023-03-17T01:10:48.721Z,6.69
2023-03-17T01:11:07.407Z,6.77
2023-03-17T01:13:34.282Z,6.98
2023-03-17T01:15:48.695Z,6.98
2023-03-17T01:16:01.268Z,7.03
2023-03-17T01:18:27.806Z,7.11
2023-03-17T01:20:48.723Z,7.11
2023-03-17T01:20:54.602Z,6.95
2023-03-17T01:23:22.177Z,5.87
2023-03-17T01:25:49.163Z,6.55
2023-03-17T01:25:49.744Z,6.55
2023-03-17T01:28:18.541Z,7.17
2023-03-17T01:30:45.707Z,6.72
2023-03-17T01:30:48.703Z,6.72
2023-03-17T01:33:13.292Z,6.28
2023-03-17T01:35:43.774Z,6.80
2023-03-17T01:35:48.738Z,6.80
2023-03-17T01:38:10.580Z,7.04
2023-03-17T01:40:43.394Z,7.02
2023-03-17T01:40:48.712Z,7.02
2023-03-17T01:43:09.690Z,7.08
2023-03-17T01:46:14.183Z,7.09
2023-03-17T01:46:14.329Z,7.09
2023-03-17T01:48:44.583Z,7.05
2023-03-17T01:50:48.716Z,7.05
2023-03-17T01:51:18.561Z,6.94
2023-03-17T01:53:48.107Z,6.49
2023-03-17T01:55:48.792Z,6.49
2023-03-17T01:56:15.512Z,6.87
2023-03-17T01:58:42.981Z,6.64
2023-03-17T02:00:48.753Z,6.64
2023-03-17T02:01:10.655Z,6.91
2023-03-17T02:03:37.022Z,6.37
2023-03-17T02:05:48.725Z,6.37
2023-03-17T02:06:04.931Z,6.06
2023-03-17T02:08:31.434Z,6.81
2023-03-17T02:10:48.739Z,6.81
2023-03-17T02:10:58.212Z,6.30
2023-03-17T02:13:24.669Z,6.81
2023-03-17T02:15:48.722Z,6.81
2023-03-17T02:15:52.342Z,6.45
2023-03-17T02:18:21.738Z,6.77
2023-03-17T02:20:47.979Z,6.75
2023-03-17T02:20:48.711Z,6.75
2023-03-17T02:23:17.898Z,6.68
2023-03-17T02:25:47.251Z,6.44
2023-03-17T02:25:48.745Z,6.44
2023-03-17T02:28:19.030Z,6.10
2023-03-17T02:30:45.452Z,6.65
2023-03-17T02:30:49.190Z,6.65
2023-03-17T02:33:12.339Z,5.83
2023-03-17T02:35:39.834Z,6.48
2023-03-17T02:35:48.832Z,6.48
2023-03-17T02:38:06.320Z,6.46
2023-03-17T02:40:33.144Z,6.49
2023-03-17T02:40:48.744Z,6.49
2023-03-17T02:43:00.689Z,6.32
2023-03-17T02:45:27.515Z,6.29
2023-03-17T02:45:48.791Z,6.29
2023-03-17T02:47:55.894Z,6.48
2023-03-17T02:50:27.915Z,6.27
2023-03-17T02:50:48.748Z,6.27
2023-03-17T02:52:54.741Z,6.28
2023-03-17T02:55:21.248Z,6.02
2023-03-17T02:55:48.737Z,6.02
2023-03-17T02:57:47.702Z,5.81
2023-03-17T03:00:16.580Z,5.64
2023-03-17T03:00:48.737Z,5.64
2023-03-17T03:02:43.303Z,6.11
2023-03-17T03:05:10.720Z,5.60
2023-03-17T03:05:48.726Z,5.60
2023-03-17T03:07:37.471Z,6.00
2023-03-17T03:10:05.374Z,5.54
2023-03-17T03:10:48.799Z,5.54
2023-03-17T03:12:32.716Z,5.87
2023-03-17T03:14:59.635Z,5.67
2023-03-17T03:15:48.908Z,5.67
2023-03-17T03:17:26.478Z,5.67
2023-03-17T03:19:55.487Z,5.97
2023-03-17T03:20:48.739Z,5.97
2023-03-17T03:22:21.829Z,6.07
2023-03-17T03:24:48.206Z,5.82
2023-03-17T03:25:48.788Z,5.82
2023-03-17T03:27:14.649Z,6.16
2023-03-17T03:29:41.651Z,5.91
2023-03-17T03:30:48.777Z,5.91
2023-03-17T03:32:08.327Z,6.02
2023-03-17T03:34:34.763Z,5.10
2023-03-17T03:35:48.750Z,5.10
2023-03-17T03:37:01.214Z,6.08
2023-03-17T03:39:30.013Z,4.38
2023-03-17T03:40:48.766Z,4.38
2023-03-17T03:41:58.316Z,6.15
2023-03-17T03:44:25.253Z,5.64
2023-03-17T03:45:48.758Z,5.64
2023-03-17T03:46:51.945Z,4.71
2023-03-17T03:49:18.772Z,6.06
2023-03-17T03:50:48.732Z,6.06
2023-03-17T03:51:45.148Z,6.01
2023-03-17T03:54:11.506Z,5.83
2023-03-17T03:55:48.723Z,5.83
2023-03-17T03:56:38.348Z,5.58
2023-03-17T03:59:04.980Z,5.58
2023-03-17T04:00:48.744Z,5.58
2023-03-17T04:01:33.931Z,5.08
2023-03-17T04:04:00.478Z,5.35
2023-03-17T04:05:48.756Z,5.35
2023-03-17T04:06:26.893Z,5.92
2023-03-17T04:08:53.269Z,5.50
2023-03-17T04:10:48.791Z,5.50
2023-03-17T04:11:19.646Z,5.08
2023-03-17T04:13:46.221Z,5.55
2023-03-17T04:15:48.758Z,5.55
2023-03-17T04:16:12.730Z,5.85
2023-03-17T04:18:39.317Z,5.50
2023-03-17T04:20:48.732Z,5.50
2023-03-17T04:21:06.227Z,5.91
2023-03-17T04:23:32.646Z,5.67
2023-03-17T04:25:48.808Z,5.67
2023-03-17T04:25:59.137Z,5.84
2023-03-17T04:28:25.731Z,5.30
2023-03-17T04:30:48.749Z,5.30
2023-03-17T04:30:52.164Z,5.39
2023-03-17T04:33:20.144Z,5.43
2023-03-17T04:35:46.646Z,4.96
2023-03-17T04:35:48.799Z,4.96
2023-03-17T04:38:13.532Z,4.48
2023-03-17T04:40:39.966Z,4.95
2023-03-17T04:40:48.742Z,4.95
2023-03-17T04:43:06.518Z,5.82
2023-03-17T04:45:33.240Z,5.82
2023-03-17T04:45:48.773Z,5.82
2023-03-17T04:47:59.788Z,5.64
2023-03-17T04:50:26.531Z,5.89
2023-03-17T04:50:48.754Z,5.89
2023-03-17T04:52:52.968Z,5.86
2023-03-17T04:55:19.486Z,5.51
2023-03-17T04:55:48.841Z,5.51
2023-03-17T04:57:48.869Z,5.58
2023-03-17T05:00:15.764Z,5.22
2023-03-17T05:00:48.788Z,5.22
2023-03-17T05:02:42.388Z,5.74
2023-03-17T05:05:09.929Z,5.48
2023-03-17T05:05:48.733Z,5.48
2023-03-17T05:07:36.553Z,5.67
2023-03-17T05:10:03.241Z,5.91
2023-03-17T05:10:48.725Z,5.91
2023-03-17T05:12:29.648Z,5.92
2023-03-17T05:14:56.183Z,5.77
2023-03-17T05:15:48.758Z,5.77
2023-03-17T05:17:22.561Z,5.94
2023-03-17T05:19:48.897Z,5.93
2023-03-17T05:20:48.738Z,5.93
2023-03-17T05:22:18.119Z,5.77
2023-03-17T05:24:44.665Z,5.64
2023-03-17T05:25:48.939Z,5.64
2023-03-17T05:27:11.461Z,5.36
2023-03-17T05:29:38.087Z,5.88
2023-03-17T05:30:48.965Z,5.88
2023-03-17T05:32:05.009Z,5.69
2023-03-17T05:34:32.010Z,5.73
2023-03-17T05:35:48.877Z,5.73
2023-03-17T05:36:58.609Z,5.86
2023-03-17T05:39:25.021Z,5.44
2023-03-17T05:40:48.737Z,5.44
2023-03-17T05:41:51.761Z,5.80
2023-03-17T05:44:18.214Z,5.55
2023-03-17T05:45:48.810Z,5.55
2023-03-17T05:46:47.558Z,5.95
2023-03-17T05:49:13.981Z,3.90
2023-03-17T05:50:48.719Z,3.90
2023-03-17T05:51:41.807Z,5.93
2023-03-17T05:54:11.050Z,5.70
2023-03-17T05:55:48.819Z,5.70
2023-03-17T05:56:37.431Z,5.54
2023-03-17T05:59:04.562Z,6.03
2023-03-17T06:00:50.789Z,6.03
2023-03-17T06:01:31.391Z,5.78
2023-03-17T06:04:01.657Z,5.67
2023-03-17T06:05:48.739Z,5.67
2023-03-17T06:06:28.609Z,5.64
2023-03-17T06:08:54.979Z,5.69
2023-03-17T06:10:48.765Z,5.69
2023-03-17T06:11:21.659Z,5.96
2023-03-17T06:13:48.949Z,5.52
2023-03-17T06:15:48.790Z,5.52
2023-03-17T06:16:15.637Z,6.20
2023-03-17T06:18:42.125Z,6.16
2023-03-17T06:20:48.730Z,6.16
2023-03-17T06:21:08.492Z,5.66
2023-03-17T06:23:34.950Z,6.16
2023-03-17T06:25:48.838Z,6.16
2023-03-17T06:26:01.578Z,6.43
2023-03-17T06:28:28.006Z,5.69
2023-03-17T06:30:48.802Z,5.69
2023-03-17T06:30:54.368Z,6.10
2023-03-17T06:33:20.712Z,6.59
2023-03-17T06:35:47.519Z,6.61
2023-03-17T06:35:48.861Z,6.61
2023-03-17T06:38:13.966Z,6.19
2023-03-17T06:40:40.674Z,5.82
2023-03-17T06:40:48.744Z,5.82
2023-03-17T06:43:07.546Z,6.79
2023-03-17T06:45:34.844Z,6.24
2023-03-17T06:45:48.767Z,6.24
2023-03-17T06:48:02.254Z,7.06
2023-03-17T06:50:28.952Z,6.10
2023-03-17T06:50:48.765Z,6.10
2023-03-17T06:52:55.483Z,6.91
2023-03-17T06:55:22.136Z,7.18
2023-03-17T06:55:48.770Z,7.18
2023-03-17T06:57:50.944Z,7.27
2023-03-17T07:00:22.490Z,6.38
2023-03-17T07:00:48.759Z,6.38
2023-03-17T07:02:49.539Z,7.40
2023-03-17T07:05:16.044Z,7.33
2023-03-17T07:05:48.771Z,7.33
2023-03-17T07:07:42.575Z,7.65
2023-03-17T07:10:13.758Z,7.79
2023-03-17T07:10:48.747Z,7.79
2023-03-17T07:12:40.125Z,7.51
2023-03-17T07:15:06.992Z,6.91
2023-03-17T07:15:48.855Z,6.91
2023-03-17T07:17:33.674Z,8.02
2023-03-17T07:20:00.084Z,8.23
2023-03-17T07:20:48.779Z,8.23
2023-03-17T07:22:27.002Z,8.10
2023-03-17T07:24:53.404Z,8.22
2023-03-17T07:25:48.875Z,8.22
2023-03-17T07:27:22.778Z,7.89
2023-03-17T07:29:49.545Z,8.73
2023-03-17T07:30:48.751Z,8.73
2023-03-17T07:32:16.025Z,8.71
2023-03-17T07:34:42.684Z,8.93
2023-03-17T07:35:48.850Z,8.93
2023-03-17T07:37:10.326Z,9.09
2023-03-17T07:39:36.752Z,9.13
2023-03-17T07:40:48.805Z,9.13
2023-03-17T07:42:03.345Z,8.57
2023-03-17T07:44:30.436Z,9.30
2023-03-17T07:45:48.836Z,9.30
2023-03-17T07:46:56.874Z,8.82
2023-03-17T07:49:40.053Z,9.42
2023-03-17T07:50:48.778Z,9.42
2023-03-17T07:52:09.479Z,9.08
2023-03-17T07:54:36.933Z,9.32
2023-03-17T07:55:48.758Z,9.32
2023-03-17T07:57:04.203Z,9.03
2023-03-17T07:59:31.586Z,9.35
2023-03-17T08:00:48.762Z,9.35
2023-03-17T08:02:00.038Z,8.50
2023-03-17T08:04:27.578Z,9.21
2023-03-17T08:05:48.771Z,9.21
2023-03-17T08:06:54.521Z,9.31
2023-03-17T08:09:22.303Z,9.55
2023-03-17T08:10:48.745Z,9.55
2023-03-17T08:11:48.844Z,9.07
2023-03-17T08:14:15.474Z,9.31
2023-03-17T08:15:48.753Z,9.31
2023-03-17T08:16:42.208Z,8.90
2023-03-17T08:19:08.673Z,9.07
2023-03-17T08:20:48.724Z,9.07
2023-03-17T08:21:35.132Z,9.62
2023-03-17T08:24:01.649Z,9.65
2023-03-17T08:25:48.850Z,9.65
2023-03-17T08:26:28.389Z,9.32
2023-03-17T08:28:54.817Z,9.90
2023-03-17T08:30:50.579Z,9.90
2023-03-17T08:31:22.645Z,10.06
2023-03-17T08:33:52.382Z,10.05
2023-03-17T08:35:48.780Z,10.05
2023-03-17T08:36:19.143Z,8.84
2023-03-17T08:38:46.608Z,10.08
2023-03-17T08:40:48.755Z,10.08
2023-03-17T08:41:16.659Z,10.15
2023-03-17T08:43:43.805Z,10.16
2023-03-17T08:45:48.905Z,10.16
2023-03-17T08:46:23.119Z,10.29
2023-03-17T08:48:51.023Z,10.28
2023-03-17T08:50:48.894Z,10.28
2023-03-17T08:51:20.255Z,10.14
2023-03-17T08:53:47.842Z,10.04
2023-03-17T08:55:48.774Z,10.04
2023-03-17T08:56:14.941Z,9.50
2023-03-17T08:58:43.063Z,10.63
2023-03-17T09:00:48.762Z,10.63
2023-03-17T09:01:10.836Z,10.49
2023-03-17T09:03:39.371Z,10.95
2023-03-17T09:05:48.793Z,10.95
2023-03-17T09:06:07.603Z,11.25
2023-03-17T09:08:35.429Z,11.49
2023-03-17T09:10:48.778Z,11.49
2023-03-17T09:11:03.839Z,11.51
2023-03-17T09:13:30.180Z,10.76
2023-03-17T09:15:50.107Z,10.76
2023-03-17T09:15:56.599Z,11.48
2023-03-17T09:18:23.029Z,11.57
2023-03-17T09:20:49.569Z,11.53
2023-03-17T09:20:49.740Z,11.53
2023-03-17T09:23:16.432Z,12.11
2023-03-17T09:25:43.484Z,12.18
2023-03-17T09:25:48.784Z,12.18
2023-03-17T09:28:12.534Z,12.22
2023-03-17T09:30:45.587Z,11.92
2023-03-17T09:30:48.808Z,11.92
2023-03-17T09:33:14.038Z,12.19
2023-03-17T09:35:41.002Z,12.11
2023-03-17T09:35:48.812Z,12.11
2023-03-17T09:38:08.500Z,12.16
2023-03-17T09:40:47.873Z,11.87
2023-03-17T09:40:48.771Z,11.87
2023-03-17T09:43:42.519Z,12.36
2023-03-17T09:45:48.791Z,12.36
2023-03-17T09:46:39.854Z,11.22
2023-03-17T09:49:14.313Z,12.64
2023-03-17T09:50:48.838Z,12.64
2023-03-17T09:51:40.881Z,12.72
2023-03-17T09:54:24.323Z,12.61
2023-03-17T09:55:48.745Z,12.61
2023-03-17T09:56:59.015Z,12.89
2023-03-17T09:59:38.539Z,13.01
2023-03-17T10:00:48.800Z,13.01
2023-03-17T10:02:26.911Z,13.55
2023-03-17T10:04:54.182Z,13.62
2023-03-17T10:05:48.835Z,13.62
2023-03-17T10:07:39.160Z,12.96
2023-03-17T10:10:16.766Z,13.42
2023-03-17T10:10:48.780Z,13.42
2023-03-17T10:12:51.335Z,13.57
2023-03-17T10:15:23.412Z,13.54
2023-03-17T10:15:48.760Z,13.54
2023-03-17T10:17:51.985Z,13.26
2023-03-17T10:20:27.209Z,13.57
2023-03-17T10:20:51.384Z,13.57
2023-03-17T10:23:00.930Z,13.57
2023-03-17T10:25:33.812Z,13.77
2023-03-17T10:25:48.815Z,13.77
2023-03-17T10:28:12.182Z,14.03
2023-03-17T10:30:39.682Z,14.11
2023-03-17T10:30:48.751Z,14.11
2023-03-17T10:33:09.586Z,13.99
2023-03-17T10:35:39.314Z,13.54
2023-03-17T10:35:48.926Z,13.54
2023-03-17T10:38:22.493Z,14.06
2023-03-17T10:40:58.654Z,14.19
2023-03-17T10:40:58.896Z,14.19
2023-03-17T10:43:30.173Z,14.44
2023-03-17T10:45:48.741Z,14.44
2023-03-17T10:46:02.409Z,14.00
2023-03-17T10:48:30.588Z,14.98
2023-03-17T10:50:49.697Z,14.98
2023-03-17T10:51:00.834Z,15.04
2023-03-17T10:53:30.627Z,15.09
2023-03-17T10:55:48.801Z,15.09
2023-03-17T10:56:00.978Z,14.24
2023-03-17T10:58:38.981Z,15.56
2023-03-17T11:00:48.794Z,15.56
2023-03-17T11:01:17.344Z,15.68
2023-03-17T11:03:46.358Z,15.73
2023-03-17T11:05:48.770Z,15.73
2023-03-17T11:06:19.154Z,15.10
2023-03-17T11:08:53.638Z,15.59
2023-03-17T11:10:48.759Z,15.59
2023-03-17T11:11:28.033Z,15.32
2023-03-17T11:14:13.490Z,15.62
2023-03-17T11:15:48.766Z,15.62
2023-03-17T11:17:01.118Z,15.77
2023-03-17T11:19:46.015Z,15.45
2023-03-17T11:20:48.749Z,15.45
2023-03-17T11:22:33.450Z,15.68
2023-03-17T11:25:09.862Z,15.81
2023-03-17T11:25:48.849Z,15.81
2023-03-17T11:28:04.584Z,15.80
2023-03-17T11:30:43.312Z,16.07
2023-03-17T11:30:48.799Z,16.07
2023-03-17T11:33:47.009Z,16.30
2023-03-17T11:35:48.967Z,16.30
2023-03-17T11:36:53.580Z,16.37
2023-03-17T11:40:00.921Z,15.54
2023-03-17T11:40:48.860Z,15.54
2023-03-17T11:42:51.276Z,16.15
2023-03-17T11:45:28.079Z,16.21
2023-03-17T11:45:48.910Z,16.21
2023-03-17T11:48:08.256Z,16.23
2023-03-17T11:50:45.650Z,15.93
2023-03-17T11:50:48.863Z,15.93
2023-03-17T11:53:33.537Z,14.95
2023-03-17T11:55:48.882Z,14.95
2023-03-17T11:56:05.497Z,15.95
2023-03-17T11:58:42.851Z,16.03
2023-03-17T12:00:48.975Z,16.03
2023-03-17T12:01:15.991Z,15.86
2023-03-17T12:03:48.866Z,14.96
2023-03-17T12:05:48.920Z,14.96
2023-03-17T12:06:21.668Z,15.79
2023-03-17T12:08:53.387Z,15.72
2023-03-17T12:10:48.948Z,48.42
2023-03-17T12:11:26.111Z,15.40
2023-03-17T12:14:26.446Z,16.05
2023-03-17T12:15:48.996Z,16.05
2023-03-17T12:17:12.276Z,16.29
2023-03-17T12:19:58.353Z,16.50
2023-03-17T12:20:49.020Z,16.50
2023-03-17T12:22:32.630Z,16.80
2023-03-17T12:25:11.062Z,16.61
2023-03-17T12:25:49.090Z,16.61
2023-03-17T12:27:46.548Z,16.55
2023-03-17T12:30:52.142Z,16.81
2023-03-17T12:30:52.367Z,16.81
2023-03-17T12:33:24.690Z,17.00
2023-03-17T12:35:49.211Z,17.00
2023-03-17T12:35:52.000Z,15.70
2023-03-17T12:38:33.120Z,16.77
2023-03-17T12:40:49.094Z,16.77
2023-03-17T12:41:33.907Z,16.77
2023-03-17T12:44:00.461Z,16.57
2023-03-17T12:45:49.107Z,16.57
2023-03-17T12:47:02.353Z,15.38
2023-03-17T12:49:42.144Z,16.42
2023-03-17T12:50:49.138Z,16.42
2023-03-17T12:52:37.629Z,16.59
2023-03-17T12:55:09.551Z,16.51
2023-03-17T12:55:49.179Z,16.51
2023-03-17T12:57:45.820Z,16.31
2023-03-17T13:00:28.330Z,16.14
2023-03-17T13:00:49.203Z,16.14
2023-03-17T13:03:21.019Z,17.05
2023-03-17T13:05:50.773Z,17.10
2023-03-17T13:05:50.938Z,17.10
2023-03-17T13:08:31.018Z,16.33
2023-03-17T13:10:49.215Z,16.33
2023-03-17T13:11:36.248Z,17.00
2023-03-17T13:14:27.035Z,16.80
2023-03-17T13:15:49.314Z,16.80
2023-03-17T13:17:06.091Z,16.86
2023-03-17T13:19:33.500Z,16.64
2023-03-17T13:20:49.249Z,16.64
2023-03-17T13:22:00.514Z,16.86
2023-03-17T13:24:42.364Z,17.09
2023-03-17T13:25:49.358Z,17.09
2023-03-17T13:27:14.443Z,16.00
2023-03-17T13:29:45.030Z,16.92
2023-03-17T13:30:49.338Z,16.92
2023-03-17T13:32:17.409Z,17.55
2023-03-17T13:35:16.662Z,17.38
2023-03-17T13:35:49.354Z,17.38
2023-03-17T13:37:52.109Z,17.36
2023-03-17T13:40:29.872Z,16.91
2023-03-17T13:40:49.385Z,16.91
2023-03-17T13:43:04.319Z,17.13
2023-03-17T13:45:39.905Z,17.34
2023-03-17T13:45:49.387Z,17.34
2023-03-17T13:48:36.271Z,17.39
2023-03-17T13:50:49.379Z,17.39
2023-03-17T13:51:14.486Z,17.26
2023-03-17T13:54:07.640Z,17.55
2023-03-17T13:55:49.551Z,17.55
2023-03-17T13:56:36.048Z,17.46
2023-03-17T13:59:02.696Z,16.40
2023-03-17T14:00:49.512Z,16.40
2023-03-17T14:01:50.579Z,17.43
2023-03-17T14:04:30.922Z,17.52
2023-03-17T14:05:49.439Z,17.52
2023-03-17T14:07:04.723Z,17.63
2023-03-17T14:09:42.064Z,17.72
2023-03-17T14:10:49.446Z,17.72
2023-03-17T14:12:19.751Z,17.19
2023-03-17T14:14:55.856Z,17.51
2023-03-17T14:15:49.438Z,17.51
2023-03-17T14:17:30.197Z,17.14
2023-03-17T14:20:26.956Z,16.98
2023-03-17T14:20:49.462Z,16.98
2023-03-17T14:22:56.683Z,16.48
2023-03-17T14:25:25.913Z,16.70
2023-03-17T14:25:49.620Z,16.70
2023-03-17T14:27:56.039Z,16.48
2023-03-17T14:30:28.789Z,16.78
2023-03-17T14:30:49.698Z,16.78
2023-03-17T14:33:15.039Z,16.92
2023-03-17T14:35:43.355Z,16.54
2023-03-17T14:35:49.581Z,16.54
2023-03-17T14:38:19.777Z,17.06
2023-03-17T14:40:49.362Z,16.99
2023-03-17T14:40:49.666Z,16.99
2023-03-17T14:43:16.283Z,16.52
2023-03-17T14:45:51.560Z,16.95
2023-03-17T14:45:51.814Z,16.95
2023-03-17T14:48:26.466Z,17.17
2023-03-17T14:50:49.630Z,17.17
2023-03-17T14:50:59.848Z,17.07
2023-03-17T14:53:26.393Z,15.86
2023-03-17T14:55:49.668Z,15.86
2023-03-17T14:55:53.745Z,16.94
2023-03-17T14:58:26.908Z,16.22
2023-03-17T15:00:49.787Z,16.22
2023-03-17T15:01:12.088Z,16.70
2023-03-17T15:03:40.516Z,16.67
2023-03-17T15:05:49.771Z,16.67
2023-03-17T15:06:13.193Z,16.65
2023-03-17T15:08:43.266Z,16.44
2023-03-17T15:10:49.740Z,16.44
2023-03-17T15:11:27.352Z,16.43
2023-03-17T15:14:03.928Z,15.18
2023-03-17T15:15:49.778Z,15.18
2023-03-17T15:16:35.361Z,15.97
2023-03-17T15:19:08.647Z,15.34
2023-03-17T15:20:49.761Z,15.34
2023-03-17T15:21:40.702Z,15.99
2023-03-17T15:24:26.096Z,15.90
2023-03-17T15:25:49.809Z,15.90
2023-03-17T15:27:07.063Z,15.51
2023-03-17T15:29:33.842Z,15.59
2023-03-17T15:30:50.269Z,15.59
2023-03-17T15:32:09.841Z,15.89
2023-03-17T15:34:36.243Z,15.89
2023-03-17T15:35:49.749Z,15.89
2023-03-17T15:37:02.642Z,15.38
2023-03-17T15:39:29.218Z,15.33
2023-03-17T15:40:49.660Z,15.33
2023-03-17T15:41:55.694Z,15.37
2023-03-17T15:44:22.109Z,15.56
2023-03-17T15:45:49.747Z,15.56
2023-03-17T15:46:48.667Z,15.30
2023-03-17T15:49:15.356Z,15.62
2023-03-17T15:50:49.674Z,15.62
2023-03-17T15:51:41.747Z,15.37
2023-03-17T15:54:13.444Z,15.77
2023-03-17T15:55:49.682Z,15.77
2023-03-17T15:56:39.823Z,15.65
2023-03-17T15:59:07.364Z,15.63
2023-03-17T16:00:49.699Z,15.63
2023-03-17T16:01:33.723Z,14.56
2023-03-17T16:04:00.339Z,15.44
2023-03-17T16:05:49.673Z,15.44
2023-03-17T16:06:26.812Z,14.67
2023-03-17T16:08:53.385Z,15.39
2023-03-17T16:10:49.683Z,15.39
2023-03-17T16:11:28.307Z,14.58
2023-03-17T16:13:56.599Z,15.40
2023-03-17T16:15:49.669Z,15.40
2023-03-17T16:16:31.703Z,15.43
2023-03-17T16:18:58.325Z,15.40
2023-03-17T16:20:49.674Z,15.40
2023-03-17T16:21:25.082Z,15.27
2023-03-17T16:23:51.456Z,14.76
2023-03-17T16:25:49.715Z,14.76
2023-03-17T16:26:18.036Z,14.95
2023-03-17T16:28:46.279Z,15.27
2023-03-17T16:30:49.753Z,15.27
2023-03-17T16:31:38.902Z,14.59
2023-03-17T16:34:15.424Z,14.81
2023-03-17T16:35:49.768Z,14.81
2023-03-17T16:36:43.817Z,14.85
2023-03-17T16:39:16.796Z,14.62
2023-03-17T16:40:49.675Z,14.62
2023-03-17T16:41:48.157Z,14.54
2023-03-17T16:44:16.613Z,14.63
2023-03-17T16:45:49.701Z,14.63
2023-03-17T16:46:44.854Z,14.53
2023-03-17T16:49:15.340Z,14.63
2023-03-17T16:50:49.703Z,14.63
2023-03-17T16:51:43.020Z,14.56
2023-03-17T16:54:10.838Z,14.25
2023-03-17T16:55:49.685Z,14.25
2023-03-17T16:56:39.655Z,14.27
2023-03-17T16:59:10.444Z,14.33
2023-03-17T17:00:49.671Z,14.33
2023-03-17T17:01:36.999Z,13.68
2023-03-17T17:04:03.452Z,13.94
2023-03-17T17:05:49.700Z,13.94
2023-03-17T17:06:29.755Z,14.03
2023-03-17T17:08:56.155Z,13.69
2023-03-17T17:10:49.710Z,13.69
2023-03-17T17:11:24.962Z,13.83
2023-03-17T17:13:51.695Z,13.90
2023-03-17T17:15:49.755Z,13.90
2023-03-17T17:16:25.358Z,13.81
2023-03-17T17:18:51.716Z,13.48
2023-03-17T17:20:49.686Z,13.48
2023-03-17T17:21:18.141Z,13.25
2023-03-17T17:23:45.223Z,13.31
2023-03-17T17:25:49.745Z,13.31
2023-03-17T17:26:11.762Z,13.65
2023-03-17T17:28:40.113Z,12.33
2023-03-17T17:30:49.778Z,12.33
2023-03-17T17:31:09.493Z,13.01
2023-03-17T17:33:36.864Z,13.49
2023-03-17T17:35:49.759Z,13.49
2023-03-17T17:36:12.418Z,13.39
2023-03-17T17:38:38.881Z,12.77
2023-03-17T17:40:49.731Z,12.77
2023-03-17T17:41:08.990Z,13.23
2023-03-17T17:43:35.758Z,13.00
2023-03-17T17:45:49.717Z,13.00
2023-03-17T17:46:02.226Z,11.98
2023-03-17T17:48:28.878Z,12.65
2023-03-17T17:50:49.683Z,12.65
2023-03-17T17:50:56.550Z,13.15
2023-03-17T17:53:23.168Z,12.90
2023-03-17T17:55:50.010Z,12.82
2023-03-17T17:55:50.190Z,12.82
2023-03-17T17:58:19.199Z,12.92
2023-03-17T18:00:46.058Z,11.60
2023-03-17T18:00:49.728Z,11.60
2023-03-17T18:03:12.592Z,12.57
2023-03-17T18:05:39.040Z,12.30
2023-03-17T18:05:49.715Z,12.30
2023-03-17T18:08:06.004Z,12.23
2023-03-17T18:10:33.057Z,12.50
2023-03-17T18:10:52.002Z,12.50
2023-03-17T18:12:59.819Z,12.47
2023-03-17T18:15:27.333Z,13.06
2023-03-17T18:15:49.741Z,13.06
2023-03-17T18:17:54.694Z,13.02
2023-03-17T18:20:22.574Z,12.81
2023-03-17T18:20:49.742Z,12.81
2023-03-17T18:22:50.250Z,12.77
2023-03-17T18:25:17.380Z,12.33
2023-03-17T18:25:49.823Z,12.33
2023-03-17T18:27:44.828Z,12.39
2023-03-17T18:30:14.637Z,12.33
2023-03-17T18:30:49.729Z,12.33
2023-03-17T18:32:43.015Z,12.25
2023-03-17T18:35:14.462Z,11.80
2023-03-17T18:35:49.725Z,11.80
2023-03-17T18:37:41.152Z,11.92
2023-03-17T18:40:15.195Z,11.52
2023-03-17T18:40:49.710Z,11.52
2023-03-17T18:42:45.287Z,11.02
2023-03-17T18:45:12.429Z,12.16
2023-03-17T18:45:49.741Z,12.16
2023-03-17T18:47:40.126Z,11.51
2023-03-17T18:50:08.141Z,12.10
2023-03-17T18:50:49.692Z,12.10
2023-03-17T18:52:36.404Z,11.56
2023-03-17T18:55:03.777Z,12.04
2023-03-17T18:55:49.692Z,12.04
2023-03-17T18:57:31.075Z,11.80
2023-03-17T18:59:57.424Z,11.72
2023-03-17T19:00:49.748Z,11.72
2023-03-17T19:02:23.921Z,12.06
2023-03-17T19:04:50.337Z,12.03
2023-03-17T19:05:49.704Z,12.03
2023-03-17T19:07:17.852Z,11.82
2023-03-17T19:09:44.992Z,12.03
2023-03-17T19:10:49.725Z,12.03
2023-03-17T19:12:11.524Z,12.05
2023-03-17T19:14:41.340Z,11.22
2023-03-17T19:15:49.686Z,11.22
2023-03-17T19:17:10.613Z,12.03
2023-03-17T19:19:37.163Z,11.75
2023-03-17T19:20:49.729Z,11.75
2023-03-17T19:22:06.192Z,11.95
2023-03-17T19:24:35.513Z,11.95
2023-03-17T19:25:49.844Z,11.95
2023-03-17T19:27:02.057Z,11.44
2023-03-17T19:29:28.416Z,11.46
2023-03-17T19:30:49.768Z,11.46
2023-03-17T19:31:54.842Z,11.20
2023-03-17T19:34:21.333Z,11.47
2023-03-17T19:35:49.735Z,11.47
2023-03-17T19:36:48.145Z,11.12
2023-03-17T19:39:15.237Z,11.60
2023-03-17T19:40:49.727Z,11.60
2023-03-17T19:41:41.812Z,11.91
2023-03-17T19:44:08.168Z,11.89
2023-03-17T19:45:49.781Z,11.89
2023-03-17T19:46:37.900Z,11.88
2023-03-17T19:49:04.919Z,11.87
2023-03-17T19:50:49.731Z,11.87
2023-03-17T19:51:34.751Z,11.87
2023-03-17T19:54:01.488Z,11.45
2023-03-17T19:55:49.727Z,11.45
2023-03-17T19:56:27.913Z,10.44
2023-03-17T19:58:54.986Z,11.88
2023-03-17T20:00:49.706Z,11.88
2023-03-17T20:01:22.749Z,11.89
2023-03-17T20:03:49.268Z,11.88
2023-03-17T20:05:49.758Z,11.88
2023-03-17T20:06:16.141Z,10.85
2023-03-17T20:08:43.122Z,11.54
2023-03-17T20:10:49.701Z,11.54
2023-03-17T20:11:11.497Z,10.80
2023-03-17T20:13:38.394Z,11.18
2023-03-17T20:15:49.759Z,11.18
2023-03-17T20:16:09.018Z,11.89
2023-03-17T20:18:37.976Z,11.77
2023-03-17T20:20:49.711Z,11.77
2023-03-17T20:21:08.094Z,11.53
2023-03-17T20:23:36.577Z,11.48
2023-03-17T20:25:49.850Z,11.48
2023-03-17T20:26:03.579Z,11.56
2023-03-17T20:28:30.246Z,10.93
2023-03-17T20:30:49.787Z,10.93
2023-03-17T20:31:00.444Z,11.13
2023-03-17T20:33:27.691Z,11.60
2023-03-17T20:35:49.765Z,11.60
2023-03-17T20:35:54.327Z,11.54
2023-03-17T20:38:21.271Z,10.93
2023-03-17T20:40:47.672Z,11.13
2023-03-17T20:40:49.719Z,11.13
2023-03-17T20:43:14.176Z,11.16
2023-03-17T20:45:41.012Z,11.13
2023-03-17T20:45:49.722Z,11.13
2023-03-17T20:48:10.437Z,10.38
2023-03-17T20:50:38.251Z,11.20
2023-03-17T20:50:49.893Z,11.20
2023-03-17T20:53:04.889Z,11.12
2023-03-17T20:55:31.315Z,11.07
2023-03-17T20:55:49.717Z,11.07
2023-03-17T20:57:59.590Z,10.30
2023-03-17T21:00:26.198Z,10.38
2023-03-17T21:00:49.835Z,10.38
2023-03-17T21:02:53.231Z,10.80
2023-03-17T21:05:23.725Z,10.95
2023-03-17T21:05:49.721Z,10.95
2023-03-17T21:07:50.582Z,10.92
2023-03-17T21:10:18.186Z,10.96
2023-03-17T21:10:49.702Z,10.96
2023-03-17T21:12:45.636Z,10.95
2023-03-17T21:15:14.026Z,10.24
2023-03-17T21:15:49.735Z,10.24
2023-03-17T21:17:44.056Z,9.95
2023-03-17T21:20:13.651Z,10.86
2023-03-17T21:20:49.721Z,10.86
2023-03-17T21:22:40.815Z,10.87
2023-03-17T21:25:09.782Z,10.89
2023-03-17T21:25:49.723Z,10.89
2023-03-17T21:27:37.754Z,10.68
2023-03-17T21:30:06.667Z,10.57
2023-03-17T21:30:49.694Z,10.57
2023-03-17T21:32:33.097Z,10.59
2023-03-17T21:34:59.752Z,10.64
2023-03-17T21:35:49.754Z,10.64
2023-03-17T21:37:26.201Z,10.30
2023-03-17T21:39:52.685Z,10.43
2023-03-17T21:40:49.726Z,10.43
2023-03-17T21:42:19.761Z,10.78
2023-03-17T21:44:48.152Z,9.72
2023-03-17T21:45:49.734Z,9.72
2023-03-17T21:47:15.559Z,9.85